Virginia Beach, VA (23452)

7:37 PM EDT on July 04, 2015 (GMT -0400)
Princess Anne Plaza | | Change Station
CLOSE
Current Station
Personal Weather Station
Location: Virginia Beach, VA
Elevation: 8 ft
Nearby Weather Stations

Elev 8 ft 36.83 °N, 76.09 °W | Updated 15 minutes ago

Mostly Cloudy
Mostly Cloudy
85.8 °F
Feels Like 95 °F
N
2.7
Wind Variable Wind from SSW

Today
High -- | Low -- °F
--% Chance of Precip.
Yesterday
High -- | Low -- °F
Precip. -- in
5:50 AM 8:27 PM
Waning Gibbous, 89% visible
Pressure 29.92 in
Visibility 10.0 miles
Clouds Few 4000 ft
Scattered Clouds 5000 ft
Mostly Cloudy 8000 ft
Mostly Cloudy 25000 ft
Heat Index 95 °F
Dew Point 75 °F
Humidity 71%
Rainfall 0.09 in
Snow Depth Not available.
UV 1 out of 12
Pollen 2.80 out of 12
Air Quality Not available.
Flu Activity Not available.
METAR KNTU 042256Z 21012KT 10SM FEW040 SCT050TCU BKN080 BKN250 29/22 A2991 RMK AO2 SLP132 TCU NE T02940222

More Conditions Fewer Conditions

Pressure 29.92 in
Visibility 10.0 miles
Clouds Few 4000 ft
Scattered Clouds 5000 ft
Mostly Cloudy 8000 ft
Mostly Cloudy 25000 ft
Heat Index 95 °F
Dew Point 75 °F
Humidity 71%
Rainfall 0.09 in
Snow Depth Not available.
UV 1 out of 12
Pollen 2.80 out of 12
Air Quality Not available.
Flu Activity Not available.
METAR KNTU 042256Z 21012KT 10SM FEW040 SCT050TCU BKN080 BKN250 29/22 A2991 RMK AO2 SLP132 TCU NE T02940222

More Conditions Fewer Conditions

10-Day Weather Forecast

×

Almanac

Astronomy

Jul. 04, 2015 Rise Set
Actual Time
Civil Twilight
Nautical Twilight
Astronomical Twilight
Moon
Length of Visible Light
Length of Day
Tomorrow will be .
, % of the Moon is Illuminated

Today's Extremes

State Highs State Lows

Community

WunderPhotos

Upload Photos

1,835,116 photos uploaded!

WunderBlogs® & News

Nearby

Air Quality

  Air Quality AQ Index Pollutant
Not available.

Snow Depth

Station Depth Elevation

Earthquake Activity

City Distance Mag. Time & Date
Minimum magnitude displayed is 2.5.

Coastal Water Temperatures

Place Temperature

Stations

Nearby Weather Stations

Station Location Temp. Windchill Dew Point Humidity Wind Precip. Elev Updated Type